createdAt,value
2018-12-27T00:00:37.347Z,100345.52
2018-12-27T00:03:06.303Z,100292.34
2018-12-27T00:05:36.626Z,100319.58
2018-12-27T00:08:05.754Z,100331.65
2018-12-27T00:10:33.650Z,100331.05
2018-12-27T00:13:03.714Z,100326.72
2018-12-27T00:15:31.911Z,100254.30
2018-12-27T00:17:59.884Z,100321.20
2018-12-27T00:20:29.627Z,100267.20
2018-12-27T00:22:58.569Z,100321.00
2018-12-27T00:25:29.883Z,100318.06
2018-12-27T01:11:46.396Z,100249.77
2018-12-27T01:14:14.810Z,100283.98
2018-12-27T01:16:42.958Z,100275.88
2018-12-27T01:19:11.114Z,100278.40
2018-12-27T01:21:40.166Z,100273.91
2018-12-27T01:24:09.339Z,100294.73
2018-12-27T01:26:39.180Z,100270.87
2018-12-27T01:29:07.450Z,100246.77
2018-12-27T01:31:37.805Z,100269.83
2018-12-27T01:34:06.327Z,100268.23
2018-12-27T01:36:35.486Z,100278.22
2018-12-27T01:39:05.461Z,100274.25
2018-12-27T01:41:34.287Z,100267.16
2018-12-27T01:44:02.503Z,100250.54
2018-12-27T01:46:30.797Z,100260.81
2018-12-27T01:48:58.850Z,100260.79
2018-12-27T01:51:28.416Z,100258.20
2018-12-27T01:53:57.249Z,100262.32
2018-12-27T01:56:25.592Z,100256.04
2018-12-27T01:58:54.398Z,100261.19
2018-12-27T02:01:22.740Z,100217.30
2018-12-27T02:03:50.780Z,100260.85
2018-12-27T02:06:18.779Z,100260.28
2018-12-27T02:08:47.555Z,100217.63
2018-12-27T02:11:16.027Z,100175.38
2018-12-27T02:13:44.451Z,100228.36
2018-12-27T02:16:13.714Z,100193.73
2018-12-27T02:18:42.388Z,100249.09
2018-12-27T02:21:10.347Z,100188.23
2018-12-27T02:23:38.623Z,100245.74
2018-12-27T02:26:06.819Z,100247.52
2018-12-27T02:28:34.607Z,100241.06
2018-12-27T02:31:03.275Z,100217.98
2018-12-27T02:33:35.171Z,100211.90
2018-12-27T02:35:59.106Z,100228.93
2018-12-27T02:38:27.341Z,100139.67
2018-12-27T02:40:55.432Z,100230.95
2018-12-27T02:43:23.882Z,100221.74
2018-12-27T02:45:51.787Z,100222.55
2018-12-27T02:48:19.792Z,100215.27
2018-12-27T02:50:47.698Z,100212.51
2018-12-27T02:53:15.868Z,100193.13
2018-12-27T02:55:43.972Z,100242.65
2018-12-27T02:58:12.252Z,100187.79
2018-12-27T03:00:40.575Z,100013.19
2018-12-27T03:03:08.691Z,100202.77
2018-12-27T03:05:36.625Z,100198.80
2018-12-27T03:08:04.667Z,100197.01
2018-12-27T03:10:32.861Z,100188.94
2018-12-27T03:13:01.636Z,100185.19
2018-12-27T03:15:29.761Z,100181.40
2018-12-27T03:17:58.055Z,100162.31
2018-12-27T03:20:26.423Z,100186.88
2018-12-27T03:22:54.459Z,100183.35
2018-12-27T03:25:22.391Z,100179.23
2018-12-27T03:27:51.006Z,100171.48
2018-12-27T03:30:18.769Z,100170.27
2018-12-27T03:32:46.513Z,100169.66
2018-12-27T03:35:14.515Z,100161.58
2018-12-27T03:37:42.411Z,100164.09
2018-12-27T03:40:10.120Z,100157.59
2018-12-27T03:42:38.287Z,100163.11
2018-12-27T03:45:06.809Z,100155.42
2018-12-27T03:47:35.652Z,100155.59
2018-12-27T03:52:37.607Z,100061.37
2018-12-27T03:55:05.368Z,100114.23
2018-12-27T03:57:33.606Z,100147.36
2018-12-27T04:00:01.492Z,100140.30
2018-12-27T04:02:29.969Z,100143.64
2018-12-27T04:04:57.999Z,100147.61
2018-12-27T04:07:25.882Z,100148.59
2018-12-27T04:09:54.223Z,100130.45
2018-12-27T04:12:22.459Z,100144.85
2018-12-27T04:14:50.360Z,100141.55
2018-12-27T04:17:18.572Z,100138.16
2018-12-27T04:19:46.441Z,100130.69
2018-12-27T04:22:14.466Z,100134.22
2018-12-27T04:24:42.644Z,100064.92
2018-12-27T04:27:10.441Z,100123.02
2018-12-27T04:29:38.520Z,100133.75
2018-12-27T04:32:07.180Z,100135.27
2018-12-27T04:34:35.065Z,100115.32
2018-12-27T04:37:03.530Z,100125.73
2018-12-27T04:39:32.052Z,100120.84
2018-12-27T04:42:00.285Z,100114.92
2018-12-27T04:44:28.188Z,100117.43
2018-12-27T04:46:56.365Z,100115.86
2018-12-27T04:49:24.301Z,100111.72
2018-12-27T04:51:52.188Z,100103.05
2018-12-27T04:54:20.646Z,100088.03
2018-12-27T04:56:48.853Z,100088.68
2018-12-27T04:59:16.759Z,100070.12
2018-12-27T05:01:45.029Z,100075.86
2018-12-27T05:04:18.113Z,99896.38
2018-12-27T05:06:41.392Z,100062.25
2018-12-27T05:09:09.599Z,100069.38
2018-12-27T05:11:42.559Z,100097.06
2018-12-27T05:14:10.719Z,100108.10
2018-12-27T05:16:39.361Z,100052.67
2018-12-27T05:19:07.479Z,100066.48
2018-12-27T05:21:35.702Z,100108.69
2018-12-27T05:24:04.053Z,100081.31
2018-12-27T05:26:31.998Z,100074.56
2018-12-27T05:28:59.931Z,100086.88
2018-12-27T05:31:28.514Z,100112.48
2018-12-27T05:33:56.412Z,100097.84
2018-12-27T05:36:24.308Z,100110.09
2018-12-27T05:38:52.820Z,100109.92
2018-12-27T05:41:20.843Z,100113.16
2018-12-27T05:43:48.984Z,100078.84
2018-12-27T05:46:17.212Z,100117.24
2018-12-27T05:48:45.313Z,100101.92
2018-12-27T05:51:13.255Z,100084.56
2018-12-27T05:53:41.208Z,100125.48
2018-12-27T05:56:09.016Z,100126.91
2018-12-27T05:58:36.877Z,100057.47
2018-12-27T06:01:05.045Z,100153.61
2018-12-27T06:03:33.197Z,100131.20
2018-12-27T06:06:01.304Z,100136.76
2018-12-27T06:08:29.148Z,100080.13
2018-12-27T06:10:57.028Z,100041.31
2018-12-27T06:13:25.203Z,100128.19
2018-12-27T06:15:53.325Z,100122.81
2018-12-27T06:18:21.759Z,100134.51
2018-12-27T06:20:49.523Z,100135.69
2018-12-27T06:23:18.694Z,100135.19
2018-12-27T06:25:46.767Z,100070.34
2018-12-27T06:28:14.741Z,100151.45
2018-12-27T06:30:42.825Z,100129.98
2018-12-27T06:33:10.740Z,100136.53
2018-12-27T06:35:38.668Z,100143.05
2018-12-27T06:38:07.288Z,100149.39
2018-12-27T06:40:35.375Z,100148.47
2018-12-27T06:43:03.463Z,100136.03
2018-12-27T06:45:31.493Z,100155.02
2018-12-27T06:47:59.210Z,100151.56
2018-12-27T06:50:27.275Z,100155.75
2018-12-27T06:52:55.932Z,100154.41
2018-12-27T06:55:24.811Z,100145.98
2018-12-27T06:57:52.744Z,100161.72
2018-12-27T07:00:20.847Z,100155.27
2018-12-27T07:02:49.211Z,100178.30
2018-12-27T07:05:17.109Z,100157.11
2018-12-27T07:07:47.992Z,100154.00
2018-12-27T07:10:16.502Z,100147.41
2018-12-27T07:12:44.647Z,100143.89
2018-12-27T07:15:12.857Z,100138.81
2018-12-27T07:17:41.040Z,100131.77
2018-12-27T07:20:09.729Z,100041.14
2018-12-27T07:22:39.096Z,100112.06
2018-12-27T07:25:07.177Z,100014.25
2018-12-27T07:27:35.194Z,100119.19
2018-12-27T07:30:03.517Z,100124.11
2018-12-27T07:32:31.493Z,100122.92
2018-12-27T07:34:59.629Z,100125.09
2018-12-27T07:37:28.101Z,100118.63
2018-12-27T07:39:56.916Z,100076.18
2018-12-27T07:42:25.730Z,100112.17
2018-12-27T07:44:54.988Z,100001.42
2018-12-27T07:47:23.016Z,100112.19
2018-12-27T07:49:50.921Z,100116.31
2018-12-27T07:52:19.364Z,100095.78
2018-12-27T07:54:49.535Z,100120.23
2018-12-27T07:57:21.636Z,100121.44
2018-12-27T07:59:50.197Z,100094.44
2018-12-27T08:02:18.171Z,100127.16
2018-12-27T08:04:46.337Z,100127.79
2018-12-27T08:07:14.657Z,100128.20
2018-12-27T08:09:45.275Z,100133.49
2018-12-27T08:12:13.376Z,100092.66
2018-12-27T08:14:42.413Z,100019.95
2018-12-27T08:17:10.283Z,100130.74
2018-12-27T08:19:39.213Z,100134.09
2018-12-27T08:22:07.311Z,100137.22
2018-12-27T08:24:35.054Z,100125.13
2018-12-27T08:27:03.763Z,100148.44
2018-12-27T08:29:32.426Z,100148.23
2018-12-27T08:32:00.859Z,100143.13
2018-12-27T08:34:29.301Z,100135.85
2018-12-27T08:36:57.393Z,100140.75
2018-12-27T08:39:25.356Z,100146.24
2018-12-27T08:41:53.230Z,100150.19
2018-12-27T08:44:20.958Z,100152.32
2018-12-27T08:46:48.775Z,100151.55
2018-12-27T08:49:16.858Z,100156.25
2018-12-27T08:51:47.667Z,100153.27
2018-12-27T08:54:15.711Z,100151.09
2018-12-27T08:56:46.005Z,100141.80
2018-12-27T08:59:14.499Z,100142.59
2018-12-27T09:01:42.238Z,100155.70
2018-12-27T09:04:10.971Z,100152.34
2018-12-27T09:06:41.440Z,100149.33
2018-12-27T09:09:09.418Z,100147.94
2018-12-27T09:11:38.408Z,100151.87
2018-12-27T09:14:06.138Z,100149.49
2018-12-27T09:16:34.291Z,100161.87
2018-12-27T09:19:03.168Z,100147.08
2018-12-27T09:21:31.594Z,100151.98
2018-12-27T09:23:59.432Z,100152.75
2018-12-27T09:26:28.025Z,100142.48
2018-12-27T09:28:56.447Z,100145.03
2018-12-27T09:31:24.605Z,100112.64
2018-12-27T09:33:55.765Z,100152.69
2018-12-27T09:36:23.456Z,100150.48
2018-12-27T09:38:51.631Z,100151.03
2018-12-27T09:41:19.731Z,99977.41
2018-12-27T09:43:47.563Z,100151.38
2018-12-27T09:46:16.637Z,100132.58
2018-12-27T09:48:46.190Z,100109.03
2018-12-27T09:51:15.488Z,100125.59
2018-12-27T09:53:46.244Z,100143.92
2018-12-27T09:56:14.647Z,100144.44
2018-12-27T09:58:42.789Z,100137.25
2018-12-27T10:01:12.724Z,100138.87
2018-12-27T10:03:43.403Z,100126.72
2018-12-27T10:06:12.895Z,100123.41
2018-12-27T10:08:42.846Z,99902.06
2018-12-27T10:11:11.124Z,100130.64
2018-12-27T10:13:42.200Z,100117.31
2018-12-27T10:16:10.601Z,99939.86
2018-12-27T10:18:39.848Z,100119.06
2018-12-27T10:21:08.647Z,100117.77
2018-12-27T10:23:36.520Z,100080.98
2018-12-27T10:26:05.148Z,99934.58
2018-12-27T10:28:33.570Z,100100.86
2018-12-27T10:31:01.353Z,100094.61
2018-12-27T10:33:29.472Z,99937.17
2018-12-27T10:35:57.341Z,100088.98
2018-12-27T10:38:26.560Z,100075.13
2018-12-27T10:40:55.739Z,100077.50
2018-12-27T10:43:23.658Z,100082.44
2018-12-27T10:45:52.509Z,100080.83
2018-12-27T10:48:20.695Z,100070.81
2018-12-27T10:50:48.732Z,100052.83
2018-12-27T10:53:16.907Z,100065.05
2018-12-27T10:55:45.348Z,100060.16
2018-12-27T10:58:13.510Z,99917.84
2018-12-27T11:00:41.220Z,100051.34
2018-12-27T11:03:09.606Z,100046.14
2018-12-27T11:05:37.368Z,100034.38
2018-12-27T11:08:05.580Z,100024.80
2018-12-27T11:10:33.850Z,100016.28
2018-12-27T11:13:01.828Z,99980.08
2018-12-27T11:15:29.605Z,99986.36
2018-12-27T11:17:57.635Z,100010.58
2018-12-27T11:20:25.380Z,100005.31
2018-12-27T11:22:53.181Z,100001.39
2018-12-27T11:25:21.947Z,99997.17
2018-12-27T11:27:49.672Z,99982.05
2018-12-27T11:30:17.843Z,99899.95
2018-12-27T11:32:45.565Z,99981.89
2018-12-27T11:35:13.629Z,99972.92
2018-12-27T11:37:41.701Z,99973.47
2018-12-27T11:40:18.168Z,99967.31
2018-12-27T11:42:45.940Z,99966.89
2018-12-27T11:45:14.700Z,99965.05
2018-12-27T11:47:42.564Z,99965.85
2018-12-27T11:50:10.684Z,99966.75
2018-12-27T11:52:38.433Z,99965.51
2018-12-27T11:55:06.609Z,99959.73
2018-12-27T11:57:34.549Z,99958.49
2018-12-27T12:00:04.723Z,99956.39
2018-12-27T12:02:32.721Z,99956.84
2018-12-27T12:05:00.471Z,99949.23
2018-12-27T12:07:28.355Z,99949.03
2018-12-27T12:09:56.391Z,99914.42
2018-12-27T12:12:24.965Z,99939.80
2018-12-27T12:14:53.352Z,99942.81
2018-12-27T12:17:21.628Z,99940.70
2018-12-27T12:19:52.910Z,99944.36
2018-12-27T12:22:20.878Z,99938.22
2018-12-27T12:24:53.561Z,99941.63
2018-12-27T12:27:24.414Z,99937.47
2018-12-27T12:29:52.411Z,99934.78
2018-12-27T12:32:20.543Z,99935.23
2018-12-27T12:34:49.268Z,99933.24
2018-12-27T12:37:19.621Z,99938.69
2018-12-27T12:39:48.408Z,99932.25
2018-12-27T12:42:33.038Z,99935.91
2018-12-27T12:44:56.981Z,99941.64
2018-12-27T12:47:25.574Z,99911.79
2018-12-27T12:49:54.520Z,99931.04
2018-12-27T12:52:24.859Z,99946.55
2018-12-27T12:54:53.455Z,99952.41
2018-12-27T12:57:23.575Z,99887.52
2018-12-27T12:59:52.247Z,99958.08
2018-12-27T13:02:21.529Z,99953.03
2018-12-27T13:04:50.085Z,99788.59
2018-12-27T13:07:18.476Z,99953.76
2018-12-27T13:09:46.268Z,99933.77
2018-12-27T13:12:14.305Z,99950.88
2018-12-27T13:14:42.375Z,99946.59
2018-12-27T13:17:10.550Z,99896.84
2018-12-27T13:19:43.496Z,99942.66
2018-12-27T13:22:12.254Z,99942.03
2018-12-27T13:24:40.747Z,99945.04
2018-12-27T13:27:09.218Z,99944.70
2018-12-27T13:29:38.962Z,99941.93
2018-12-27T13:32:09.927Z,99918.41
2018-12-27T13:34:38.250Z,99898.38
2018-12-27T13:37:07.625Z,99914.41
2018-12-27T13:39:37.346Z,99932.17
2018-12-27T13:42:06.927Z,99935.70
2018-12-27T13:44:35.098Z,99929.66
2018-12-27T13:47:03.424Z,99925.73
2018-12-27T13:49:32.094Z,99971.02
2018-12-27T13:52:04.075Z,99938.36
2018-12-27T13:54:32.950Z,99904.00
2018-12-27T13:57:01.358Z,99929.60
2018-12-27T13:59:31.622Z,99925.65
2018-12-27T14:01:59.412Z,99916.09
2018-12-27T14:04:27.592Z,99931.42
2018-12-27T14:06:55.828Z,99935.79
2018-12-27T14:09:25.017Z,99937.61
2018-12-27T14:11:53.864Z,99917.81
2018-12-27T14:14:21.636Z,99938.89
2018-12-27T14:16:49.465Z,99934.00
2018-12-27T14:19:17.663Z,99931.91
2018-12-27T14:21:45.487Z,99934.33
2018-12-27T14:24:14.181Z,99940.57
2018-12-27T14:26:42.264Z,99923.78
2018-12-27T14:29:10.011Z,99933.83
2018-12-27T14:31:38.361Z,99940.25
2018-12-27T14:34:06.427Z,99919.50
2018-12-27T14:36:39.655Z,99939.45
2018-12-27T14:39:02.421Z,99932.58
2018-12-27T14:41:32.089Z,99937.80
2018-12-27T14:44:03.697Z,99934.05
2018-12-27T14:46:31.580Z,99934.94
2018-12-27T14:48:59.925Z,99934.98
2018-12-27T14:51:28.470Z,99937.80
2018-12-27T14:53:56.257Z,99940.45
2018-12-27T14:56:24.809Z,99935.59
2018-12-27T14:58:52.707Z,99926.36
2018-12-27T15:01:20.485Z,99898.19
2018-12-27T15:03:51.244Z,99937.80
2018-12-27T15:06:19.787Z,99931.36
2018-12-27T15:08:47.594Z,99935.98
2018-12-27T15:11:16.619Z,99931.53
2018-12-27T15:13:46.513Z,99897.39
2018-12-27T15:16:16.040Z,99769.83
2018-12-27T15:18:44.263Z,99934.71
2018-12-27T15:21:12.009Z,99940.33
2018-12-27T15:23:40.683Z,99844.66
2018-12-27T15:26:12.001Z,99946.83
2018-12-27T15:28:40.090Z,99931.36
2018-12-27T15:31:09.980Z,99785.22
2018-12-27T15:33:39.900Z,99948.22
2018-12-27T15:36:12.044Z,99796.39
2018-12-27T15:38:40.502Z,99891.88
2018-12-27T15:41:10.437Z,100007.30
2018-12-27T15:43:38.601Z,99941.05
2018-12-27T15:46:06.704Z,99941.91
2018-12-27T15:48:37.372Z,99941.95
2018-12-27T15:51:05.709Z,99939.82
2018-12-27T15:53:33.702Z,99946.19
2018-12-27T15:56:03.008Z,99945.00
2018-12-27T15:58:31.514Z,99955.30
2018-12-27T16:01:00.884Z,99931.89
2018-12-27T16:03:31.466Z,99954.64
2018-12-27T16:06:00.251Z,99950.33
2018-12-27T16:08:28.839Z,99953.73
2018-12-27T16:10:57.490Z,99875.48
2018-12-27T16:13:25.392Z,99953.65
2018-12-27T16:15:53.150Z,99962.22
2018-12-27T16:18:21.302Z,99954.04
2018-12-27T16:20:49.276Z,99955.93
2018-12-27T16:23:20.386Z,99952.66
2018-12-27T16:25:48.829Z,99954.55
2018-12-27T16:28:21.621Z,99949.92
2018-12-27T16:30:51.620Z,99953.81
2018-12-27T16:33:19.466Z,99931.49
2018-12-27T16:35:47.733Z,99947.26
2018-12-27T16:38:17.923Z,99941.02
2018-12-27T16:40:46.019Z,99948.78
2018-12-27T16:43:17.040Z,99951.58
2018-12-27T16:45:45.347Z,99940.37
2018-12-27T16:48:13.528Z,99942.78
2018-12-27T16:50:41.575Z,99937.72
2018-12-27T16:53:10.500Z,99932.63
2018-12-27T16:55:43.689Z,99935.27
2018-12-27T16:58:15.816Z,99935.13
2018-12-27T17:00:44.711Z,99927.08
2018-12-27T17:03:12.646Z,99923.59
2018-12-27T17:05:40.837Z,99921.03
2018-12-27T17:08:11.059Z,99919.69
2018-12-27T17:10:39.554Z,99916.14
2018-12-27T17:13:07.663Z,99804.00
2018-12-27T17:15:36.108Z,99908.55
2018-12-27T17:18:11.506Z,99889.27
2018-12-27T17:20:41.858Z,99914.14
2018-12-27T17:23:10.163Z,99913.72
2018-12-27T17:25:38.091Z,99894.22
2018-12-27T17:28:06.271Z,99916.31
2018-12-27T17:30:35.104Z,99897.97
2018-12-27T17:33:04.197Z,99901.91
2018-12-27T17:35:32.221Z,99901.16
2018-12-27T17:38:00.476Z,99906.45
2018-12-27T17:40:29.334Z,99902.91
2018-12-27T17:42:57.093Z,99901.95
2018-12-27T17:45:26.516Z,99915.05
2018-12-27T17:47:54.115Z,99923.59
2018-12-27T17:50:22.013Z,99926.63
2018-12-27T17:52:51.206Z,99763.49
2018-12-27T17:55:19.628Z,99914.79
2018-12-27T17:57:47.484Z,99911.67
2018-12-27T18:00:16.041Z,99880.66
2018-12-27T18:02:45.654Z,99936.35
2018-12-27T18:05:13.571Z,99906.09
2018-12-27T18:07:42.664Z,99845.27
2018-12-27T18:10:14.698Z,99948.45
2018-12-27T18:12:51.030Z,99950.39
2018-12-27T18:15:19.443Z,99947.86
2018-12-27T18:17:53.100Z,99946.08
2018-12-27T18:20:24.728Z,99858.48
2018-12-27T18:22:56.377Z,99946.87
2018-12-27T18:25:24.689Z,99943.69
2018-12-27T18:27:52.709Z,99943.25
2018-12-27T18:30:21.683Z,99960.97
2018-12-27T18:32:50.893Z,99953.28
2018-12-27T18:35:18.769Z,99959.36
2018-12-27T18:37:48.302Z,99949.14
2018-12-27T18:40:19.723Z,99956.04
2018-12-27T18:42:47.748Z,99952.88
2018-12-27T18:45:22.219Z,99953.70
2018-12-27T18:47:51.921Z,99953.73
2018-12-27T18:50:23.925Z,99956.50
2018-12-27T18:52:56.615Z,99958.47
2018-12-27T18:58:22.263Z,99959.00
2018-12-27T19:01:03.396Z,99963.80
2018-12-27T19:03:33.590Z,99958.50
2018-12-27T19:06:04.206Z,99959.91
2018-12-27T19:08:33.649Z,99949.50
2018-12-27T19:11:15.821Z,99703.69
2018-12-27T19:13:50.616Z,99946.89
2018-12-27T19:16:25.732Z,99947.13
2018-12-27T19:18:59.148Z,99949.33
2018-12-27T19:23:44.203Z,99894.63
2018-12-27T19:26:13.142Z,99935.11
2018-12-27T19:28:42.684Z,99953.45
2018-12-27T19:31:15.425Z,99955.84
2018-12-27T19:33:45.132Z,99951.77
2018-12-27T19:36:19.259Z,99849.70
2018-12-27T19:38:52.013Z,99956.75
2018-12-27T19:41:20.914Z,99955.17
2018-12-27T19:43:50.494Z,99955.23
2018-12-27T19:46:23.459Z,99960.39
2018-12-27T19:48:52.640Z,99915.68
2018-12-27T19:51:24.298Z,99821.13
2018-12-27T19:53:55.013Z,99962.42
2018-12-27T19:56:25.038Z,99952.03
2018-12-27T19:58:58.509Z,99718.41
2018-12-27T20:01:26.474Z,99952.66
2018-12-27T20:03:56.065Z,99910.70
2018-12-27T20:06:24.028Z,99940.50
2018-12-27T20:08:55.319Z,99944.07
2018-12-27T20:11:25.206Z,99954.52
2018-12-27T20:13:56.960Z,99948.47
2018-12-27T20:16:25.822Z,99953.16
2018-12-27T20:18:54.321Z,99949.22
2018-12-27T20:21:23.678Z,99935.43
2018-12-27T20:23:55.344Z,99933.46
2018-12-27T20:26:23.925Z,99931.49
2018-12-27T20:28:52.271Z,99931.89
2018-12-27T20:31:26.314Z,99783.06
2018-12-27T20:34:07.798Z,99928.38
2018-12-27T20:36:36.907Z,99930.20
2018-12-27T20:39:10.769Z,99773.50
2018-12-27T20:41:43.045Z,99924.72
2018-12-27T20:44:10.961Z,99928.31
2018-12-27T20:49:24.137Z,99904.17
2018-12-27T20:51:52.352Z,99915.41
2018-12-27T20:54:23.509Z,99911.27
2018-12-27T20:56:58.087Z,99937.86
2018-12-27T20:59:27.065Z,99912.42
2018-12-27T21:01:55.480Z,99915.55
2018-12-27T21:04:30.068Z,99915.57
2018-12-27T21:07:00.829Z,99914.98
2018-12-27T21:09:37.730Z,99907.13
2018-12-27T21:12:10.267Z,99912.25
2018-12-27T21:14:38.983Z,99911.07
2018-12-27T21:17:12.440Z,99892.17
2018-12-27T21:19:45.101Z,99916.45
2018-12-27T21:22:15.433Z,99919.06
2018-12-27T21:24:44.878Z,99917.48
2018-12-27T21:27:17.205Z,99915.13
2018-12-27T21:29:47.739Z,99918.86
2018-12-27T21:32:16.060Z,99913.34
2018-12-27T21:34:47.773Z,99908.82
2018-12-27T21:37:17.165Z,99898.61
2018-12-27T21:39:48.117Z,99897.03
2018-12-27T21:42:17.312Z,99907.25
2018-12-27T21:44:46.061Z,99814.89
2018-12-27T21:47:16.823Z,99902.88
2018-12-27T21:49:46.270Z,99896.22
2018-12-27T21:52:15.458Z,99893.30
2018-12-27T21:54:46.193Z,99898.38
2018-12-27T21:57:16.040Z,99890.11
2018-12-27T21:59:43.962Z,99890.90
2018-12-27T22:02:18.383Z,99893.48
2018-12-27T22:04:47.389Z,99899.20
2018-12-27T22:07:16.959Z,99897.29
2018-12-27T22:09:48.068Z,99903.25
2018-12-27T22:12:16.549Z,99909.44
2018-12-27T22:14:45.686Z,99905.13
2018-12-27T22:17:14.098Z,99902.41
2018-12-27T22:19:43.258Z,99906.38
2018-12-27T22:22:11.684Z,99898.58
2018-12-27T22:24:40.699Z,99878.09
2018-12-27T22:27:15.577Z,99898.55
2018-12-27T22:29:50.123Z,99902.13
2018-12-27T22:32:21.840Z,99890.90
2018-12-27T22:34:50.461Z,99894.47
2018-12-27T22:37:18.754Z,99894.64
2018-12-27T22:39:46.772Z,99895.25
2018-12-27T22:42:20.814Z,99892.55
2018-12-27T22:44:52.261Z,99893.28
2018-12-27T22:47:23.923Z,99902.00
2018-12-27T22:49:54.272Z,99892.21
2018-12-27T22:52:23.811Z,99902.03
2018-12-27T22:54:54.100Z,99902.67
2018-12-27T22:58:47.183Z,99900.11
2018-12-27T23:01:19.635Z,99904.89
2018-12-27T23:03:49.253Z,99901.56
2018-12-27T23:06:18.183Z,99903.17
2018-12-27T23:08:46.837Z,99901.03
2018-12-27T23:11:19.381Z,99896.33
2018-12-27T23:13:47.195Z,99896.58
2018-12-27T23:16:17.718Z,99857.20
2018-12-27T23:18:48.230Z,99896.06
2018-12-27T23:21:17.634Z,99887.72
2018-12-27T23:23:53.026Z,99767.78
2018-12-27T23:26:22.609Z,99887.70
2018-12-27T23:28:51.046Z,99892.03
2018-12-27T23:31:21.031Z,99893.44
2018-12-27T23:33:49.544Z,99893.23
2018-12-27T23:36:18.077Z,99890.48
2018-12-27T23:38:50.258Z,99892.30
2018-12-27T23:41:15.590Z,99892.16
2018-12-27T23:43:43.684Z,99666.99
2018-12-27T23:46:15.322Z,99915.77
2018-12-27T23:48:43.361Z,99838.05
2018-12-27T23:51:13.339Z,99890.23
2018-12-27T23:53:41.323Z,99893.39
2018-12-27T23:56:10.691Z,99897.52
2018-12-27T23:58:42.235Z,99825.41
